Swift Current Airport
CYYN : now visible

Airfield :











YOU CAN JOIN US ON...

 
LOGIN :

Register | Disclaimer

   EN    FR    IT 

 









Legend :    VFR   Marginal VFR   IFR   Intensive IFR   Very Intensive IFR
Visi :
Ceiling :
>= 8 km
>= 3000ft
5 to 8 km
1000 to 3000 ft
1500m to 5 km
500 to 1000 ft
800 to 1500m
200 to 500 ft
< 800m
< 200 ft
Symbols :   Thunderstorms  Fog  Heavy snow  Heavy precipitations  Wind > 20 kt






- Airport Elevation : 2680 ft
- IATA code : YYN


CYYN - Swift Current

CURRENT METAR :
  • 241736Z AUTO 15017KT 130V230 9SM SCT110 20/M04 A2993 RMK SLP127 DENSITY ALT 4000FT

EXPIRED METARs :
  • 241700Z AUTO 17005G15KT 9SM BKN110 19/M06 A2993 RMK SLP141 DENSITY ALT 3800FT
  • 241600Z AUTO 22008KT 9SM FEW110 19/M05 A2993 RMK SLP137 DENSITY ALT 3800FT
  • 241500Z AUTO 21012G19KT 9SM CLR 18/M03 A2992 RMK SLP135 DENSITY ALT 3700FT

TAF TAF CYYN
Valid from the 24 at 12:00 until the 25 at 00:00 UTC


241140Z 2412/2424 20010KT P6SM SKC
FM241600 20015KT P6SM SCT080 RMK FCST BASED ON AUTO OBS. NXT FCST BY 241800Z
CZWG FIR / North America



MET'MAP, your aeronautical weather chart ! - Copyright ORBIFLY December 2007 - Disclaimer

ORBIFLY MET'MAP TEAM :

Programming & Development : Alexandra Zaïnal
Original concept : Baudouin d'Aumeries
Technical & hardware support : Manuel Goepfert
Assistance : Marc-Olivier Méhu

Contact : metmap@orbifly.com




SOURCES & CREDITS :

   NOAA       Earth
Advisory